Time;durP1;ratioP1;P1;durP2;ratioP2;P2;SDS_P1;SDS_P2;PMS_P1;PMS_P2;Temp;Humidity;BMP_temperature;BMP_pressure;BME280_temperature;BME280_humidity;BME280_pressure;Samples;Min_cycle;Max_cycle;Signal;HPM_P1;HPM_P2
2024/02/21 00:00:15;;;;;;;9.03;5.60;;;;;;;9.54;100.00;102254.69;2088036;28;20270;-73
2024/02/21 00:01:16;;;;;;;9.37;6.03;;;;;;;9.61;100.00;102245.66;2087541;28;20478;-73
2024/02/21 00:02:17;;;;;;;9.30;5.27;;;;;;;8.39;100.00;102046.50;2087705;28;20443;-73
2024/02/21 00:03:17;;;;;;;9.30;5.57;;;;;;;9.56;100.00;102246.81;2086598;28;21034;-73
2024/02/21 00:04:18;;;;;;;11.30;6.33;;;;;;;9.59;100.00;102246.03;2088828;28;20224;-73
2024/02/21 00:05:18;;;;;;;9.70;6.20;;;;;;;9.10;100.00;102164.69;2087616;28;20196;-72
2024/02/21 00:06:19;;;;;;;8.07;5.50;;;;;;;9.59;100.00;102240.50;2088312;28;20200;-73
2024/02/21 00:07:19;;;;;;;8.00;5.70;;;;;;;9.55;100.00;102236.94;2087697;28;20274;-72
2024/02/21 00:08:20;;;;;;;9.17;5.90;;;;;;;9.57;100.00;102239.28;2087607;28;20257;-73
2024/02/21 00:09:20;;;;;;;11.53;6.00;;;;;;;9.61;100.00;102240.91;2087941;28;20715;-73
2024/02/21 00:10:21;;;;;;;10.07;6.63;;;;;;;9.63;100.00;102240.53;2088727;28;20211;-73
2024/02/21 00:11:22;;;;;;;8.43;4.97;;;;;;;9.70;100.00;102238.59;2087821;28;20278;-73
2024/02/21 00:12:22;;;;;;;9.73;5.67;;;;;;;9.58;100.00;102207.69;2088157;28;20216;-73
2024/02/21 00:13:23;;;;;;;10.70;5.97;;;;;;;9.33;100.00;102184.63;2087418;28;20199;-73
2024/02/21 00:14:23;;;;;;;11.37;5.97;;;;;;;9.69;100.00;102239.75;2088177;28;20199;-73
2024/02/21 00:15:24;;;;;;;9.60;5.60;;;;;;;8.99;100.00;102145.28;2087573;28;20263;-73
2024/02/21 00:16:24;;;;;;;8.93;5.67;;;;;;;9.54;100.00;102220.69;2088941;28;20561;-73
2024/02/21 00:17:26;;;;;;;8.47;5.57;;;;;;;9.50;100.00;102215.16;2087957;28;20206;-73
2024/02/21 00:18:26;;;;;;;8.77;5.80;;;;;;;9.66;100.00;102231.44;2087180;28;20663;-73
2024/02/21 00:19:27;;;;;;;11.73;6.23;;;;;;;9.60;100.00;102227.47;2087594;28;20833;-71
2024/02/21 00:20:27;;;;;;;8.90;5.70;;;;;;;9.50;100.00;102215.16;2087596;28;20227;-73
2024/02/21 00:21:28;;;;;;;8.60;5.83;;;;;;;9.54;100.00;102215.16;2088007;28;20612;-71
2024/02/21 00:22:31;;;;;;;8.80;5.80;;;;;;;8.56;100.00;102054.94;2089067;28;20278;-73
2024/02/21 00:23:31;;;;;;;7.97;5.60;;;;;;;9.66;100.00;102223.94;2094855;28;20203;-73
2024/02/21 00:24:32;;;;;;;8.77;5.57;;;;;;;9.39;100.00;102189.38;2095395;28;20453;-73
2024/02/21 00:25:32;;;;;;;7.60;5.20;;;;;;;9.64;100.00;102229.06;2087498;28;20195;-73
2024/02/21 00:26:33;;;;;;;8.50;5.90;;;;;;;9.45;100.00;102198.13;2095309;28;20689;-72
2024/02/21 00:27:33;;;;;;;8.47;5.40;;;;;;;8.73;100.00;102090.22;2095605;28;20645;-73
2024/02/21 00:28:34;;;;;;;9.80;6.20;;;;;;;9.56;100.00;102230.22;2088341;28;20208;-73
2024/02/21 00:29:34;;;;;;;9.43;5.67;;;;;;;9.61;100.00;102218.78;2087403;28;20199;-73
2024/02/21 00:30:37;;;;;;;12.53;6.17;;;;;;;9.59;100.00;102218.34;2087451;28;20192;-73
2024/02/21 00:31:38;;;;;;;8.87;6.10;;;;;;;9.61;100.00;102215.19;2087760;28;20226;-73
2024/02/21 00:32:38;;;;;;;9.73;6.03;;;;;;;8.95;100.00;102114.03;2087561;28;20454;-73
2024/02/21 00:33:39;;;;;;;7.13;5.27;;;;;;;9.66;100.00;102223.13;2086879;28;20228;-73
2024/02/21 00:34:39;;;;;;;9.93;6.50;;;;;;;9.60;100.00;102208.88;2089107;28;20195;-73
2024/02/21 00:35:40;;;;;;;8.50;5.60;;;;;;;9.36;100.00;102179.09;2087260;28;20275;-73
2024/02/21 00:36:41;;;;;;;9.57;6.13;;;;;;;9.54;100.00;102210.41;2088249;28;20187;-73
2024/02/21 00:37:41;;;;;;;9.33;5.97;;;;;;;9.59;100.00;102223.09;2087163;28;20247;-73
2024/02/21 00:38:42;;;;;;;9.47;6.23;;;;;;;9.06;100.00;102138.97;2088053;28;20233;-73
2024/02/21 00:39:42;;;;;;;8.87;5.70;;;;;;;9.56;100.00;102221.09;2087751;28;20191;-73
2024/02/21 00:40:42;;;;;;;10.77;6.03;;;;;;;9.50;100.00;102228.19;2088799;28;20888;-73
2024/02/21 00:41:43;;;;;;;9.77;5.30;;;;;;;9.49;100.00;102221.06;2087913;28;21543;-73
2024/02/21 00:42:43;;;;;;;10.83;6.00;;;;;;;9.44;100.00;102222.22;2087784;28;20191;-73
2024/02/21 00:43:44;;;;;;;8.43;5.47;;;;;;;9.31;100.00;102220.97;2084368;28;20198;-73
2024/02/21 00:44:44;;;;;;;12.37;6.63;;;;;;;9.35;100.00;102220.97;2087341;28;20238;-73
2024/02/21 00:45:45;;;;;;;9.13;6.33;;;;;;;8.81;100.00;102135.28;2087452;28;20209;-73
2024/02/21 00:46:47;;;;;;;12.27;6.27;;;;;;;9.37;100.00;102222.19;2088452;28;20189;-73
2024/02/21 00:47:47;;;;;;;10.17;6.50;;;;;;;9.37;100.00;102213.09;2087125;28;20629;-73
2024/02/21 00:48:48;;;;;;;9.40;6.00;;;;;;;9.22;100.00;102225.25;2087107;28;20478;-73
2024/02/21 00:49:48;;;;;;;11.67;6.20;;;;;;;9.19;100.00;102217.72;2087456;28;20206;-73
2024/02/21 00:50:49;;;;;;;11.27;7.27;;;;;;;9.03;100.00;102203.38;2086114;28;20283;-73
2024/02/21 00:51:49;;;;;;;10.03;5.97;;;;;;;9.12;100.00;102217.66;2086313;28;20182;-73
2024/02/21 00:52:50;;;;;;;9.60;6.23;;;;;;;9.12;100.00;102215.69;2088603;28;20274;-73
2024/02/21 00:53:50;;;;;;;9.83;6.10;;;;;;;9.04;100.00;102227.06;2086978;28;20279;-73
2024/02/21 00:54:51;;;;;;;8.40;5.53;;;;;;;9.14;100.00;102226.38;2087065;28;20259;-73
2024/02/21 00:55:52;;;;;;;9.27;5.80;;;;;;;9.09;100.00;102208.16;2087037;28;20195;-73
2024/02/21 00:56:52;;;;;;;11.57;5.60;;;;;;;9.04;100.00;102211.28;2087696;28;20191;-73
2024/02/21 00:57:52;;;;;;;10.53;6.00;;;;;;;8.97;100.00;102208.44;2087173;28;20681;-73
2024/02/21 00:58:53;;;;;;;10.93;6.73;;;;;;;8.99;100.00;102216.38;2088735;28;20220;-73
2024/02/21 00:59:53;;;;;;;10.07;5.93;;;;;;;8.54;100.00;102154.00;2086979;28;20253;-73
2024/02/21 01:00:54;;;;;;;9.40;6.07;;;;;;;8.67;100.00;102171.88;2086496;28;20198;-73
2024/02/21 01:01:54;;;;;;;10.13;6.17;;;;;;;8.95;100.00;102227.41;2086433;28;20717;-73
2024/02/21 01:02:55;;;;;;;10.70;6.37;;;;;;;8.88;100.00;102202.47;2086921;28;20195;-73
2024/02/21 01:03:55;;;;;;;9.77;6.47;;;;;;;8.93;100.00;102204.06;2094449;28;20195;-73
2024/02/21 01:04:56;;;;;;;10.83;6.30;;;;;;;8.92;100.00;102213.56;2096435;28;20211;-73
2024/02/21 01:05:56;;;;;;;9.13;5.90;;;;;;;8.88;100.00;102207.19;2087536;28;20225;-73
2024/02/21 01:06:57;;;;;;;11.53;6.47;;;;;;;8.44;100.00;102140.09;2086745;28;20191;-73
2024/02/21 01:07:58;;;;;;;10.03;6.07;;;;;;;8.79;100.00;102201.19;2087526;28;20203;-73
2024/02/21 01:08:59;;;;;;;7.60;5.47;;;;;;;8.76;100.00;102205.50;2087458;28;20187;-73
2024/02/21 01:09:59;;;;;;;10.40;7.30;;;;;;;8.66;100.00;102197.91;2087169;28;20430;-73
2024/02/21 01:11:00;;;;;;;12.53;7.10;;;;;;;8.04;100.00;102126.28;2088459;28;20187;-73
2024/02/21 01:12:00;;;;;;;14.87;7.63;;;;;;;8.60;100.00;102213.28;2086600;28;20205;-73
2024/02/21 01:13:01;;;;;;;9.87;6.20;;;;;;;7.84;100.00;102094.50;2087331;28;20188;-73
2024/02/21 01:14:01;;;;;;;8.93;6.00;;;;;;;8.47;100.00;102203.69;2087243;28;20191;-73
2024/02/21 01:15:02;;;;;;;9.13;5.87;;;;;;;8.37;100.00;102206.31;2087783;28;20632;-73
2024/02/21 01:16:03;;;;;;;11.10;6.67;;;;;;;8.13;100.00;102177.25;2088362;28;20666;-73
2024/02/21 01:17:06;;;;;;;10.10;6.40;;;;;;;7.23;100.00;102050.06;2096429;28;20563;-73
2024/02/21 01:18:06;;;;;;;10.05;6.45;;;;;;;8.17;100.00;102199.38;2095260;28;20209;-73
2024/02/21 01:19:07;;;;;;;10.67;5.90;;;;;;;7.53;100.00;102119.78;2087735;28;20198;-73
2024/02/21 01:20:07;;;;;;;10.63;6.53;;;;;;;7.86;100.00;102147.38;2087551;28;20771;-73
2024/02/21 01:21:09;;;;;;;9.17;6.33;;;;;;;8.19;100.00;102192.31;2087844;28;20195;-73
2024/02/21 01:22:10;;;;;;;12.30;6.85;;;;;;;8.10;100.00;102188.25;2087705;28;20193;-73
2024/02/21 01:23:10;;;;;;;11.33;7.63;;;;;;;7.81;100.00;102162.31;2088533;28;20198;-73
2024/02/21 01:24:11;;;;;;;12.27;6.80;;;;;;;7.99;100.00;102188.13;2087013;28;20200;-73
2024/02/21 01:25:11;;;;;;;10.67;7.40;;;;;;;8.09;100.00;102198.50;2087732;28;20199;-73
2024/02/21 01:26:14;;;;;;;9.87;6.57;;;;;;;7.85;100.00;102154.06;2087712;28;20201;-73
2024/02/21 01:27:14;;;;;;;8.45;5.35;;;;;;;8.11;100.00;102198.91;2086960;28;20189;-73
2024/02/21 01:28:15;;;;;;;10.20;6.67;;;;;;;8.06;100.00;102190.19;2087699;28;20192;-73
2024/02/21 01:29:15;;;;;;;8.83;5.97;;;;;;;7.55;100.00;102111.91;2088215;28;20186;-73
2024/02/21 01:30:16;;;;;;;11.97;7.63;;;;;;;8.04;100.00;102198.84;2094774;28;20330;-73
2024/02/21 01:31:16;;;;;;;11.57;7.47;;;;;;;8.04;100.00;102195.31;2095492;28;20192;-73
2024/02/21 01:32:17;;;;;;;10.67;6.17;;;;;;;7.65;100.00;102133.31;2087010;28;20667;-73
2024/02/21 01:33:18;;;;;;;9.37;6.07;;;;;;;8.02;100.00;102194.88;2087282;28;20210;-73
2024/02/21 01:34:19;;;;;;;11.67;7.00;;;;;;;7.94;100.00;102182.94;2087156;28;20194;-73
2024/02/21 01:35:19;;;;;;;9.93;6.23;;;;;;;7.42;100.00;102110.56;2088430;28;20430;-73
2024/02/21 01:36:20;;;;;;;10.10;6.30;;;;;;;7.28;100.00;102088.34;2087484;28;20244;-73
2024/02/21 01:37:21;;;;;;;9.17;5.73;;;;;;;7.94;100.00;102193.22;2088005;28;20230;-73
2024/02/21 01:38:21;;;;;;;8.13;6.10;;;;;;;7.91;100.00;102186.47;2087131;28;20220;-73
2024/02/21 01:39:22;;;;;;;12.67;6.20;;;;;;;7.86;100.00;102188.75;2086625;28;20476;-73
2024/02/21 01:40:22;;;;;;;10.03;6.30;;;;;;;7.70;100.00;102171.63;2087212;28;20186;-73
2024/02/21 01:41:23;;;;;;;11.70;6.97;;;;;;;7.73;100.00;102174.41;2088276;28;20177;-73
2024/02/21 01:42:23;;;;;;;9.53;6.03;;;;;;;7.85;100.00;102187.19;2087258;28;20188;-73
2024/02/21 01:43:24;;;;;;;10.73;6.40;;;;;;;7.89;100.00;102179.75;2087247;28;20282;-73
2024/02/21 01:44:25;;;;;;;11.07;6.50;;;;;;;7.71;100.00;102165.72;2088010;28;20192;-73
2024/02/21 01:45:25;;;;;;;10.77;6.47;;;;;;;7.82;100.00;102183.19;2089046;28;20178;-73
2024/02/21 01:46:28;;;;;;;8.93;5.73;;;;;;;7.30;100.00;102108.03;2089093;28;20191;-73
2024/02/21 01:47:28;;;;;;;16.00;6.70;;;;;;;7.61;100.00;102157.31;2089029;28;20197;-73
2024/02/21 01:48:29;;;;;;;11.47;6.87;;;;;;;7.77;100.00;102177.22;2089002;28;20433;-73
2024/02/21 01:49:30;;;;;;;10.13;6.20;;;;;;;6.49;100.00;101971.91;2089113;28;20201;-73
2024/02/21 01:50:30;;;;;;;10.57;6.67;;;;;;;7.31;100.00;102113.19;2088870;28;20438;-73
2024/02/21 01:51:31;;;;;;;13.50;8.20;;;;;;;7.21;100.00;102104.75;2088769;28;20620;-73
2024/02/21 01:52:34;;;;;;;11.10;6.77;;;;;;;7.22;100.00;102107.16;2088772;28;20179;-73
2024/02/21 01:53:43;;;;;;;11.37;6.67;;;;;;;7.26;100.00;102108.00;2089664;28;20657;-73
2024/02/21 01:54:44;;;;;;;10.97;6.73;;;;;;;7.72;100.00;102172.84;2089254;28;21012;-73
2024/02/21 01:55:48;;;;;;;9.87;5.90;;;;;;;7.25;100.00;102105.63;2089037;28;20993;-73
2024/02/21 01:56:49;;;;;;;11.17;7.57;;;;;;;7.70;100.00;102177.91;2088057;28;20447;-73
2024/02/21 01:57:50;;;;;;;10.87;6.00;;;;;;;7.66;100.00;102165.25;2089188;28;20473;-73
2024/02/21 01:58:51;;;;;;;9.83;7.13;;;;;;;6.99;100.00;102064.31;2089027;28;21054;-73
2024/02/21 01:59:52;;;;;;;10.75;5.80;;;;;;;7.60;100.00;102156.53;2088569;28;20190;-73
2024/02/21 02:00:56;;;;;;;11.80;6.63;;;;;;;7.39;100.00;102133.38;2089837;28;20266;-73
2024/02/21 02:01:57;;;;;;;11.70;7.22;;;;;;;7.64;100.00;102176.66;2088898;28;20188;-73
2024/02/21 02:02:58;;;;;;;10.93;6.60;;;;;;;7.13;100.00;102089.31;2087956;28;20740;-73
2024/02/21 02:03:59;;;;;;;11.30;7.03;;;;;;;7.55;100.00;102151.34;2088572;28;20237;-73
2024/02/21 02:05:01;;;;;;;10.83;6.83;;;;;;;7.75;100.00;102174.81;2088770;28;20740;-73
2024/02/21 02:06:02;;;;;;;11.57;6.77;;;;;;;7.60;100.00;102159.28;2096417;28;20641;-73
2024/02/21 02:07:06;;;;;;;12.67;7.40;;;;;;;7.03;100.00;102089.97;2097077;28;20478;-73
2024/02/21 02:08:06;;;;;;;12.10;7.00;;;;;;;7.70;100.00;102171.63;2089710;28;20513;-73
2024/02/21 02:09:07;;;;;;;11.63;6.70;;;;;;;7.55;100.00;102167.91;2088573;28;20475;-73
2024/02/21 02:10:09;;;;;;;12.73;7.27;;;;;;;6.91;100.00;102068.94;2087128;28;20200;-73
2024/02/21 02:11:13;;;;;;;10.25;6.57;;;;;;;7.65;100.00;102171.94;2088490;28;20345;-73
2024/02/21 02:12:13;;;;;;;11.50;6.70;;;;;;;7.60;100.00;102166.75;2088863;28;20207;-73
2024/02/21 02:13:14;;;;;;;11.87;6.40;;;;;;;6.63;100.00;101996.09;2088274;28;20500;-73
2024/02/21 02:14:15;;;;;;;10.90;6.77;;;;;;;7.68;100.00;102171.97;2090013;28;20180;-73
2024/02/21 02:15:15;;;;;;;9.63;7.07;;;;;;;7.34;100.00;102114.41;2088966;28;20192;-73
2024/02/21 02:16:16;;;;;;;12.50;6.80;;;;;;;7.35;100.00;102116.00;2088919;28;20190;-73
2024/02/21 02:17:16;;;;;;;13.63;6.60;;;;;;;7.27;100.00;102115.09;2088214;28;20186;-73
2024/02/21 02:18:19;;;;;;;10.50;6.37;;;;;;;7.44;100.00;102153.16;2088824;28;20343;-73
2024/02/21 02:19:20;;;;;;;12.77;7.73;;;;;;;7.49;100.00;102161.09;2087981;28;20176;-73
2024/02/21 02:20:20;;;;;;;11.73;6.97;;;;;;;7.58;100.00;102172.66;2089752;28;20478;-73
2024/02/21 02:21:30;;;;;;;10.57;6.63;;;;;;;7.35;100.00;102124.25;2088857;28;20466;-73
2024/02/21 02:22:34;;;;;;;9.17;6.57;;;;;;;7.56;100.00;102163.16;2089091;28;20204;-73
2024/02/21 02:23:34;;;;;;;14.15;8.20;;;;;;;7.42;100.00;102143.66;2088430;28;20494;-73
2024/02/21 02:24:35;;;;;;;13.00;8.00;;;;;;;7.45;100.00;102162.22;2087958;28;20288;-73
2024/02/21 02:25:37;;;;;;;12.47;5.97;;;;;;;7.39;100.00;102167.25;2089442;28;20197;-73
2024/02/21 02:26:37;;;;;;;14.00;7.75;;;;;;;6.97;100.00;102111.53;2088847;28;20276;-73
2024/02/21 02:27:44;;;;;;;12.47;7.77;;;;;;;7.25;100.00;102172.59;2089959;28;20184;-73
2024/02/21 02:28:45;;;;;;;12.75;8.35;;;;;;;7.17;100.00;102154.34;2089501;28;20176;-72
2024/02/21 02:29:45;;;;;;;12.27;6.57;;;;;;;7.12;100.00;102157.44;2088366;28;20199;-73
2024/02/21 02:30:46;;;;;;;11.27;7.73;;;;;;;7.21;100.00;102170.94;2089165;28;20281;-73
2024/02/21 02:31:47;;;;;;;14.17;6.73;;;;;;;7.10;100.00;102168.03;2088678;28;20643;-73
2024/02/21 02:32:47;;;;;;;9.13;6.30;;;;;;;6.88;100.00;102126.75;2088975;28;20671;-73
2024/02/21 02:33:48;;;;;;;12.53;6.67;;;;;;;7.09;100.00;102176.69;2087873;28;20272;-73
2024/02/21 02:34:48;;;;;;;10.27;5.63;;;;;;;7.03;100.00;102173.44;2089005;28;20189;-73
2024/02/21 02:35:49;;;;;;;13.77;7.00;;;;;;;7.03;100.00;102176.19;2088693;28;20202;-73
2024/02/21 02:36:50;;;;;;;14.73;7.77;;;;;;;7.07;100.00;102176.28;2087508;28;20222;-73
2024/02/21 02:37:50;;;;;;;14.37;8.57;;;;;;;7.02;100.00;102171.06;2087870;28;20216;-73
2024/02/21 02:38:51;;;;;;;12.90;8.47;;;;;;;6.76;100.00;102141.53;2088344;28;20181;-73
2024/02/21 02:39:51;;;;;;;11.83;6.57;;;;;;;6.84;100.00;102153.47;2088223;28;20191;-73
2024/02/21 02:40:52;;;;;;;11.80;6.53;;;;;;;7.03;100.00;102178.16;2089382;28;20189;-73
2024/02/21 02:41:52;;;;;;;10.97;6.53;;;;;;;7.04;100.00;102171.47;2088276;28;20199;-73
2024/02/21 02:42:54;;;;;;;14.40;8.73;;;;;;;7.04;100.00;102175.06;2088376;28;20283;-73
2024/02/21 02:43:55;;;;;;;13.48;8.00;;;;;;;7.04;100.00;102177.81;2087348;28;20193;-72
2024/02/21 02:44:57;;;;;;;12.70;7.83;;;;;;;6.72;100.00;102120.59;2087808;28;20282;-73
2024/02/21 02:45:57;;;;;;;13.02;7.40;;;;;;;6.68;100.00;102115.06;2088512;28;20215;-73
2024/02/21 02:46:58;;;;;;;12.27;7.33;;;;;;;6.97;100.00;102152.09;2089063;28;20188;-73
2024/02/21 02:47:59;;;;;;;15.50;9.70;;;;;;;7.04;100.00;102171.47;2088252;28;20185;-73
2024/02/21 02:48:59;;;;;;;13.93;6.60;;;;;;;7.00;100.00;102165.13;2088780;28;20230;-73
2024/02/21 02:50:00;;;;;;;10.50;6.47;;;;;;;6.48;100.00;102090.69;2088332;28;20198;-73
2024/02/21 02:51:00;;;;;;;13.20;7.70;;;;;;;7.00;100.00;102171.44;2088393;28;20186;-73
2024/02/21 02:52:01;;;;;;;13.97;7.67;;;;;;;7.02;100.00;102177.38;2088342;28;20226;-73
2024/02/21 02:53:01;;;;;;;12.10;8.80;;;;;;;6.62;100.00;102112.97;2088067;28;20199;-73
2024/02/21 02:54:03;;;;;;;10.37;6.60;;;;;;;6.91;100.00;102143.34;2088215;28;20181;-73
2024/02/21 02:55:05;;;;;;;12.40;6.70;;;;;;;6.63;100.00;102115.34;2086979;28;20202;-73
2024/02/21 02:56:05;;;;;;;14.30;7.53;;;;;;;6.89;100.00;102162.22;2087066;28;20269;-73
2024/02/21 02:57:06;;;;;;;13.63;7.47;;;;;;;6.84;100.00;102156.22;2087150;28;20425;-73
2024/02/21 02:58:08;;;;;;;11.18;7.25;;;;;;;6.51;100.00;102112.00;2087198;28;20201;-73
2024/02/21 02:59:09;;;;;;;12.68;7.05;;;;;;;6.15;100.00;102050.03;2088921;28;20191;-73
2024/02/21 03:00:14;;;;;;;12.70;7.53;;;;;;;6.76;100.00;102138.00;2086927;28;20235;-73
2024/02/21 03:01:14;;;;;;;12.77;8.68;;;;;;;6.63;100.00;102120.06;2087960;28;20185;-73
2024/02/21 03:02:15;;;;;;;14.00;8.43;;;;;;;7.01;100.00;102175.78;2087337;28;20271;-73
2024/02/21 03:03:16;;;;;;;10.30;5.80;;;;;;;6.97;100.00;102172.16;2087815;28;20283;-73
2024/02/21 03:04:16;;;;;;;13.30;7.60;;;;;;;7.03;100.00;102175.41;2087591;28;20577;-73
2024/02/21 03:05:21;;;;;;;12.33;7.17;;;;;;;7.03;100.00;102170.69;2088851;28;20176;-73
2024/02/21 03:06:21;;;;;;;12.77;6.78;;;;;;;5.99;100.00;102010.03;2088199;28;20246;-73
2024/02/21 03:07:22;;;;;;;11.60;6.83;;;;;;;6.80;100.00;102136.88;2087024;28;20232;-73
2024/02/21 03:08:22;;;;;;;11.13;7.00;;;;;;;6.54;100.00;102098.28;2087292;28;20196;-73
2024/02/21 03:09:23;;;;;;;11.23;6.87;;;;;;;7.00;100.00;102182.47;2087792;28;20198;-73
2024/02/21 03:10:23;;;;;;;10.40;6.50;;;;;;;6.84;100.00;102179.06;2087701;28;20263;-73
2024/02/21 03:11:28;;;;;;;12.20;7.37;;;;;;;6.90;100.00;102174.81;2088762;28;20188;-73
2024/02/21 03:12:29;;;;;;;10.87;6.63;;;;;;;6.72;100.00;102165.47;2087782;28;20191;-73
2024/02/21 03:13:29;;;;;;;11.47;6.93;;;;;;;6.84;100.00;102178.25;2085982;28;20504;-73
2024/02/21 03:14:30;;;;;;;12.97;7.00;;;;;;;6.88;100.00;102181.88;2086681;28;20196;-73
2024/02/21 03:15:31;;;;;;;11.60;7.10;;;;;;;6.86;100.00;102181.44;2086784;28;20201;-73
2024/02/21 03:16:31;;;;;;;10.60;6.90;;;;;;;6.47;100.00;102113.91;2088057;28;20212;-73
2024/02/21 03:17:34;;;;;;;11.30;6.90;;;;;;;6.91;100.00;102176.41;2087599;28;20588;-73
2024/02/21 03:18:34;;;;;;;12.88;7.32;;;;;;;6.83;100.00;102171.94;2088188;28;20567;-73
2024/02/21 03:19:35;;;;;;;12.83;6.63;;;;;;;6.84;100.00;102181.00;2087454;28;20189;-73
2024/02/21 03:20:35;;;;;;;11.93;6.93;;;;;;;6.53;100.00;102140.78;2087670;28;20191;-73
2024/02/21 03:21:36;;;;;;;10.83;6.63;;;;;;;6.42;100.00;102116.97;2087301;28;20708;-73
2024/02/21 03:22:37;;;;;;;11.43;6.93;;;;;;;6.13;100.00;102068.91;2087032;28;20212;-73
2024/02/21 03:23:37;;;;;;;12.25;7.05;;;;;;;6.42;100.00;102115.00;2086854;28;20199;-73
2024/02/21 03:24:38;;;;;;;13.33;8.20;;;;;;;6.85;100.00;102180.66;2087892;28;20194;-73
2024/02/21 03:25:39;;;;;;;12.93;7.13;;;;;;;6.36;100.00;102126.69;2087303;28;20278;-73
2024/02/21 03:26:40;;;;;;;12.07;6.60;;;;;;;6.92;100.00;102174.47;2085293;28;20213;-73
2024/02/21 03:27:40;;;;;;;10.93;7.33;;;;;;;6.70;100.00;102131.19;2087555;28;20195;-73
2024/02/21 03:28:41;;;;;;;11.00;7.73;;;;;;;7.01;100.00;102178.53;2087617;28;20184;-73
2024/02/21 03:29:41;;;;;;;10.87;7.10;;;;;;;6.98;100.00;102164.69;2087056;28;20185;-73
2024/02/21 03:30:42;;;;;;;13.20;6.87;;;;;;;7.06;100.00;102177.41;2088778;28;20287;-73
2024/02/21 03:31:43;;;;;;;10.23;6.83;;;;;;;7.05;100.00;102165.59;2087379;28;20663;-73
2024/02/21 03:32:43;;;;;;;10.23;6.80;;;;;;;7.10;100.00;102164.47;2087037;28;20194;-73
2024/02/21 03:33:44;;;;;;;11.20;6.50;;;;;;;6.93;100.00;102146.50;2087286;28;20441;-73
2024/02/21 03:34:44;;;;;;;11.70;7.07;;;;;;;7.21;100.00;102176.47;2087081;28;20626;-73
2024/02/21 03:35:45;;;;;;;11.77;6.87;;;;;;;7.17;100.00;102175.63;2087305;28;20266;-73
2024/02/21 03:36:45;;;;;;;10.90;7.03;;;;;;;7.20;100.00;102181.19;2035788;28;1488999;-73
2024/02/21 03:37:46;;;;;;;12.90;7.50;;;;;;;5.61;100.00;101922.13;2087459;28;20291;-73
2024/02/21 03:38:47;;;;;;;11.80;6.97;;;;;;;7.15;100.00;102161.41;2087885;28;20246;-73
2024/02/21 03:39:48;;;;;;;13.00;6.87;;;;;;;7.23;100.00;102163.88;2087977;28;20565;-73
2024/02/21 03:40:48;;;;;;;12.00;7.17;;;;;;;7.24;100.00;102159.19;2087103;28;20457;-73
2024/02/21 03:41:49;;;;;;;12.03;7.37;;;;;;;7.35;100.00;102180.22;2087798;28;20187;-73
2024/02/21 03:42:49;;;;;;;10.43;6.90;;;;;;;7.32;100.00;102189.22;2089163;28;20221;-73
2024/02/21 03:43:50;;;;;;;9.30;5.87;;;;;;;7.44;100.00;102186.25;2087238;28;20189;-73
2024/02/21 03:44:50;;;;;;;11.33;7.23;;;;;;;7.45;100.00;102171.31;2095555;28;20239;-73
2024/02/21 03:45:51;;;;;;;13.13;6.70;;;;;;;7.42;100.00;102163.75;2095720;28;20186;-73
2024/02/21 03:46:51;;;;;;;12.80;6.57;;;;;;;7.55;100.00;102175.38;2085940;28;20182;-73
2024/02/21 03:47:52;;;;;;;12.60;7.43;;;;;;;7.20;100.00;102136.28;2087833;28;20171;-73
2024/02/21 03:48:52;;;;;;;10.00;5.90;;;;;;;7.60;100.00;102180.56;2088198;28;20680;-73
2024/02/21 03:49:53;;;;;;;11.27;6.57;;;;;;;7.56;100.00;102183.28;2087874;28;20671;-73
2024/02/21 03:50:53;;;;;;;12.90;7.33;;;;;;;7.52;100.00;102174.16;2087619;28;20706;-73
2024/02/21 03:51:54;;;;;;;11.67;6.57;;;;;;;7.51;100.00;102169.81;2088070;28;20195;-73
2024/02/21 03:52:54;;;;;;;11.37;6.53;;;;;;;7.56;100.00;102180.50;2086941;28;20186;-73
2024/02/21 03:53:55;;;;;;;11.30;7.53;;;;;;;7.43;100.00;102156.31;2088209;28;20571;-73
2024/02/21 03:54:55;;;;;;;12.13;6.73;;;;;;;7.33;100.00;102145.91;2088403;28;20628;-73
2024/02/21 03:55:56;;;;;;;11.03;6.37;;;;;;;7.64;100.00;102179.41;2087725;28;20239;-73
2024/02/21 03:56:57;;;;;;;11.07;6.57;;;;;;;7.63;100.00;102183.34;2087937;28;20189;-73
2024/02/21 03:57:57;;;;;;;11.10;6.70;;;;;;;7.05;100.00;102093.13;2087813;28;20731;-73
2024/02/21 03:58:58;;;;;;;8.73;6.60;;;;;;;7.38;100.00;102140.84;2086783;28;20187;-73
2024/02/21 03:59:58;;;;;;;10.87;7.13;;;;;;;7.64;100.00;102179.41;2088888;28;20203;-73
2024/02/21 04:01:03;;;;;;;10.27;6.20;;;;;;;7.68;100.00;102180.25;2095320;28;20203;-73
2024/02/21 04:02:08;;;;;;;10.77;6.73;;;;;;;7.37;100.00;102121.91;2094857;28;20182;-73
2024/02/21 04:03:08;;;;;;;10.40;5.72;;;;;;;7.76;100.00;102183.91;2087085;28;20438;-73
2024/02/21 04:04:10;;;;;;;9.70;6.80;;;;;;;7.78;100.00;102190.63;2087720;28;20215;-73
2024/02/21 04:05:11;;;;;;;11.38;5.72;;;;;;;7.14;100.00;102079.88;2086511;28;20574;-73
2024/02/21 04:06:12;;;;;;;9.57;6.37;;;;;;;7.79;100.00;102178.41;2087054;28;20199;-73
2024/02/21 04:07:13;;;;;;;8.13;6.00;;;;;;;7.79;100.00;102177.66;2088029;28;20208;-73
2024/02/21 04:08:14;;;;;;;9.55;6.28;;;;;;;7.14;100.00;102077.91;2087735;28;20956;-73
2024/02/21 04:09:15;;;;;;;11.40;6.70;;;;;;;7.64;100.00;102167.59;2095687;28;20573;-73
2024/02/21 04:10:15;;;;;;;11.40;6.73;;;;;;;7.33;100.00;102097.06;2095169;28;20197;-73
2024/02/21 04:11:17;;;;;;;9.67;6.67;;;;;;;7.77;100.00;102174.44;2087925;28;20809;-73
2024/02/21 04:12:17;;;;;;;12.10;6.95;;;;;;;7.81;100.00;102176.09;2087147;28;20650;-73
2024/02/21 04:13:18;;;;;;;10.90;6.77;;;;;;;7.81;100.00;102194.63;2088421;28;20624;-73
2024/02/21 04:14:18;;;;;;;10.80;6.37;;;;;;;7.73;100.00;102155.09;2094390;28;20704;-73
2024/02/21 04:15:19;;;;;;;13.80;7.20;;;;;;;7.79;100.00;102170.16;2095160;28;20194;-73
2024/02/21 04:16:19;;;;;;;12.07;7.03;;;;;;;7.71;100.00;102168.47;2087843;28;20187;-73
2024/02/21 04:17:20;;;;;;;12.50;6.77;;;;;;;7.72;100.00;102174.78;2087220;28;20322;-73
2024/02/21 04:18:21;;;;;;;10.83;6.63;;;;;;;7.76;100.00;102178.38;2087417;28;20245;-73
2024/02/21 04:19:22;;;;;;;11.55;7.35;;;;;;;7.76;100.00;102175.63;2088706;28;20666;-73
2024/02/21 04:20:23;;;;;;;10.90;6.40;;;;;;;7.76;100.00;102170.91;2087253;28;20536;-73
2024/02/21 04:21:23;;;;;;;12.73;6.53;;;;;;;7.77;100.00;102174.44;2087324;28;20244;-73
2024/02/21 04:22:24;;;;;;;10.67;6.63;;;;;;;7.31;100.00;102102.16;2088058;28;20540;-73
2024/02/21 04:23:24;;;;;;;10.53;6.83;;;;;;;7.80;100.00;102168.97;2085807;28;20267;-73
2024/02/21 04:24:25;;;;;;;10.83;6.57;;;;;;;7.58;100.00;102145.06;2087299;28;20288;-73
2024/02/21 04:25:26;;;;;;;15.27;6.67;;;;;;;7.75;100.00;102168.53;2088851;28;20187;-73
2024/02/21 04:26:26;;;;;;;10.90;7.03;;;;;;;7.72;100.00;102181.09;2086922;28;20185;-73
2024/02/21 04:27:27;;;;;;;11.03;6.90;;;;;;;7.67;100.00;102175.91;2087429;28;20323;-73
2024/02/21 04:28:27;;;;;;;12.13;6.87;;;;;;;7.66;100.00;102182.63;2087441;28;20193;-73
2024/02/21 04:29:28;;;;;;;10.30;6.63;;;;;;;7.40;100.00;102155.09;2086875;28;20669;-73
2024/02/21 04:30:29;;;;;;;11.73;6.77;;;;;;;7.00;100.00;102086.00;2087012;28;20185;-73
2024/02/21 04:31:29;;;;;;;9.70;5.83;;;;;;;6.24;100.00;101970.75;2088357;28;20669;-73
2024/02/21 04:32:30;;;;;;;10.17;6.00;;;;;;;7.24;100.00;102129.66;2086934;28;20195;-73
2024/02/21 04:33:30;;;;;;;12.93;6.40;;;;;;;7.30;100.00;102143.91;2087282;28;20281;-73
2024/02/21 04:34:30;;;;;;;11.73;6.57;;;;;;;7.36;100.00;102170.78;2086885;28;20200;-73
2024/02/21 04:35:31;;;;;;;11.73;6.50;;;;;;;6.89;100.00;102098.84;2087819;28;20191;-73
2024/02/21 04:36:32;;;;;;;9.27;5.43;;;;;;;7.41;100.00;102187.00;2086934;28;20264;-73
2024/02/21 04:37:33;;;;;;;8.25;5.65;;;;;;;7.29;100.00;102175.41;2088334;28;20250;-73
2024/02/21 04:38:34;;;;;;;14.57;6.37;;;;;;;7.24;100.00;102172.97;2087381;28;20193;-73
2024/02/21 04:39:34;;;;;;;13.50;7.17;;;;;;;6.64;100.00;102099.59;2094736;28;20200;-73
2024/02/21 04:40:35;;;;;;;10.63;6.97;;;;;;;7.01;100.00;102150.16;2095307;28;20256;-73